Time;durP1;ratioP1;P1;durP2;ratioP2;P2;SDS_P1;SDS_P2;PMS_P1;PMS_P2;Temp;Humidity;BMP_temperature;BMP_pressure;BME280_temperature;BME280_humidity;BME280_pressure;Samples;Min_cycle;Max_cycle;Signal;HPM_P1;HPM_P2
2023/03/29 00:01:29;;;;;;;26.35;9.27;;;;;;;;;;5054341;28;20017;-69
2023/03/29 00:03:56;;;;;;;30.77;11.40;;;;;;;;;;5053127;28;20039;-69
2023/03/29 00:06:22;;;;;;;28.45;11.55;;;;;;;;;;5054208;28;20410;-68
2023/03/29 00:08:55;;;;;;;26.00;10.63;;;;;;;;;;5054068;28;20029;-69
2023/03/29 00:11:21;;;;;;;28.20;12.13;;;;;;;;;;5054442;28;20025;-70
2023/03/29 00:13:48;;;;;;;30.85;12.00;;;;;;;;;;5054143;28;20191;-70
2023/03/29 00:16:14;;;;;;;32.75;12.70;;;;;;;;;;5053837;28;20483;-70
2023/03/29 00:18:40;;;;;;;26.30;13.43;;;;;;;;;;5054028;28;20029;-68
2023/03/29 00:21:06;;;;;;;36.17;14.00;;;;;;;;;;5053757;28;20029;-69
2023/03/29 00:23:32;;;;;;;40.33;13.05;;;;;;;;;;5051785;28;20024;-69
2023/03/29 00:25:58;;;;;;;38.15;12.90;;;;;;;;;;5053748;28;20032;-69
2023/03/29 00:28:24;;;;;;;29.17;12.48;;;;;;;;;;5053797;28;20025;-71
2023/03/29 00:30:50;;;;;;;30.45;13.75;;;;;;;;;;5053885;28;20028;-68
2023/03/29 00:33:20;;;;;;;27.58;11.57;;;;;;;;;;5053766;28;20461;-68
2023/03/29 00:35:47;;;;;;;29.60;13.02;;;;;;;;;;5053626;28;20013;-67
2023/03/29 00:38:14;;;;;;;33.28;11.57;;;;;;;;;;5053416;28;20060;-65
2023/03/29 00:40:45;;;;;;;32.70;12.73;;;;;;;;;;5052172;28;20489;-64
2023/03/29 00:43:12;;;;;;;32.13;11.80;;;;;;;;;;5053552;28;20075;-64
2023/03/29 00:45:38;;;;;;;42.88;13.23;;;;;;;;;;5053421;28;20017;-63
2023/03/29 00:48:06;;;;;;;30.90;12.15;;;;;;;;;;5053387;28;20079;-63
2023/03/29 00:50:35;;;;;;;26.38;11.60;;;;;;;;;;5053156;28;20028;-63
2023/03/29 00:53:11;;;;;;;23.40;10.65;;;;;;;;;;5053398;28;20429;-63
2023/03/29 00:55:57;;;;;;;25.52;10.52;;;;;;;;;;5052240;28;20087;-64
2023/03/29 00:58:30;;;;;;;22.65;10.57;;;;;;;;;;5052924;28;20552;-63
2023/03/29 01:01:00;;;;;;;30.80;11.75;;;;;;;;;;5052993;28;20051;-64
2023/03/29 01:03:29;;;;;;;38.55;10.45;;;;;;;;;;5053195;28;20029;-64
2023/03/29 01:05:58;;;;;;;28.08;9.65;;;;;;;;;;5052945;28;20021;-63
2023/03/29 01:08:30;;;;;;;31.42;12.15;;;;;;;;;;5053067;28;20033;-63
2023/03/29 01:11:06;;;;;;;38.17;9.65;;;;;;;;;;5053008;28;20025;-62
2023/03/29 01:13:38;;;;;;;30.98;9.77;;;;;;;;;;5051801;28;20083;-64
2023/03/29 01:16:04;;;;;;;77.63;12.32;;;;;;;;;;5052931;28;20481;-62
2023/03/29 01:18:30;;;;;;;46.45;11.45;;;;;;;;;;5053114;28;20037;-64
2023/03/29 01:21:04;;;;;;;39.53;9.45;;;;;;;;;;5052876;28;20017;-64
2023/03/29 01:23:46;;;;;;;52.13;9.38;;;;;;;;;;5052737;28;20023;-64
2023/03/29 01:26:35;;;;;;;41.20;10.93;;;;;;;;;;5052425;28;20072;-64
2023/03/29 01:29:01;;;;;;;133.45;13.02;;;;;;;;;;5051689;28;20021;-65
2023/03/29 01:31:33;;;;;;;263.50;19.67;;;;;;;;;;5052656;28;20039;-67
2023/03/29 01:33:59;;;;;;;;;;;;;;;;;;5052878;28;20065;-65
2023/03/29 01:36:33;;;;;;;250.15;17.27;;;;;;;;;;5052472;28;20388;-65
2023/03/29 01:39:05;;;;;;;314.70;17.77;;;;;;;;;;5052774;28;20039;-65
2023/03/29 01:41:48;;;;;;;151.10;12.80;;;;;;;;;;5052311;28;20084;-65
2023/03/29 01:44:34;;;;;;;274.23;18.25;;;;;;;;;;5052351;28;20091;-65
2023/03/29 01:47:10;;;;;;;187.77;12.85;;;;;;;;;;5050997;28;20052;-66
2023/03/29 01:49:41;;;;;;;180.95;13.38;;;;;;;;;;5052531;28;20036;-66
2023/03/29 01:52:10;;;;;;;400.92;22.52;;;;;;;;;;5052133;28;20028;-67
2023/03/29 01:54:54;;;;;;;337.55;21.92;;;;;;;;;;5050776;28;20363;-66
2023/03/29 01:57:21;;;;;;;142.88;12.60;;;;;;;;;;5051935;28;20056;-66
2023/03/29 01:59:48;;;;;;;269.40;16.25;;;;;;;;;;5052078;28;20513;-66
2023/03/29 02:02:15;;;;;;;331.08;16.75;;;;;;;;;;5050562;28;20029;-67
2023/03/29 02:04:46;;;;;;;345.30;22.95;;;;;;;;;;5032262;28;20481;-67
2023/03/29 02:07:14;;;;;;;323.33;18.65;;;;;;;;;;5031862;28;20386;-68
2023/03/29 02:09:41;;;;;;;90.47;8.63;;;;;;;;;;5031811;28;20014;-68
2023/03/29 02:12:08;;;;;;;168.55;17.80;;;;;;;;;;5031860;28;20044;-68
2023/03/29 02:14:35;;;;;;;91.90;9.63;;;;;;;;;;5031889;28;20025;-67
2023/03/29 02:17:17;;;;;;;117.07;9.68;;;;;;;;;;5031622;28;20490;-68
2023/03/29 02:19:45;;;;;;;262.23;16.10;;;;;;;;;;5046770;28;20115;-68
2023/03/29 02:22:11;;;;;;;141.27;11.48;;;;;;;;;;5051578;28;20021;-69
2023/03/29 02:24:39;;;;;;;195.82;12.90;;;;;;;;;;5050262;28;20056;-68
2023/03/29 02:27:06;;;;;;;390.30;25.05;;;;;;;;;;5051358;28;20032;-68
2023/03/29 02:29:32;;;;;;;245.68;15.68;;;;;;;;;;5050187;28;20056;-68
2023/03/29 02:32:03;;;;;;;141.75;11.68;;;;;;;;;;5051475;28;20017;-70
2023/03/29 02:34:32;;;;;;;232.63;14.32;;;;;;;;;;5049524;28;20039;-68
2023/03/29 02:37:00;;;;;;;162.02;12.55;;;;;;;;;;5046739;28;20487;-68
2023/03/29 02:39:27;;;;;;;319.33;17.00;;;;;;;;;;5031509;28;20030;-68
2023/03/29 02:41:53;;;;;;;355.65;17.55;;;;;;;;;;5031202;28;20049;-68
2023/03/29 02:44:21;;;;;;;379.45;19.20;;;;;;;;;;5031285;28;20022;-69
2023/03/29 02:46:50;;;;;;;270.27;13.70;;;;;;;;;;5031019;28;20026;-68
2023/03/29 02:49:16;;;;;;;189.57;12.68;;;;;;;;;;5033580;28;20506;-67
2023/03/29 02:51:42;;;;;;;388.20;22.67;;;;;;;;;;5049227;28;20039;-67
2023/03/29 02:54:11;;;;;;;359.05;18.27;;;;;;;;;;5051061;28;20044;-68
2023/03/29 02:56:44;;;;;;;333.98;19.75;;;;;;;;;;5051009;28;20021;-68
2023/03/29 02:59:11;;;;;;;169.90;10.18;;;;;;;;;;5051046;28;20603;-68
2023/03/29 03:01:37;;;;;;;240.48;12.95;;;;;;;;;;5049652;28;20029;-66
2023/03/29 03:04:03;;;;;;;383.75;20.65;;;;;;;;;;5049666;28;20453;-67
2023/03/29 03:06:29;;;;;;;240.50;17.00;;;;;;;;;;5041325;28;20508;-67
2023/03/29 03:08:55;;;;;;;225.65;12.23;;;;;;;;;;5038494;28;20051;-66
2023/03/29 03:11:22;;;;;;;229.10;13.65;;;;;;;;;;5051045;28;20052;-67
2023/03/29 03:13:48;;;;;;;257.17;15.07;;;;;;;;;;5049776;28;20040;-64
2023/03/29 03:16:15;;;;;;;170.02;9.52;;;;;;;;;;5050976;28;20049;-65
2023/03/29 03:18:42;;;;;;;287.27;16.30;;;;;;;;;;5050974;28;20017;-64
2023/03/29 03:21:08;;;;;;;283.15;16.00;;;;;;;;;;5050791;28;20592;-65
2023/03/29 03:23:35;;;;;;;284.92;15.90;;;;;;;;;;5050933;28;20029;-65
2023/03/29 03:26:01;;;;;;;113.07;8.00;;;;;;;;;;5049709;28;20040;-65
2023/03/29 03:28:27;;;;;;;305.05;12.95;;;;;;;;;;5050677;28;20025;-66
2023/03/29 03:30:53;;;;;;;172.70;9.68;;;;;;;;;;5050873;28;20098;-66
2023/03/29 03:33:20;;;;;;;431.15;18.80;;;;;;;;;;5049622;28;20033;-65
2023/03/29 03:35:46;;;;;;;290.92;12.18;;;;;;;;;;5050899;28;20028;-66
2023/03/29 03:38:12;;;;;;;296.83;16.27;;;;;;;;;;5050792;28;20036;-65
2023/03/29 03:40:39;;;;;;;238.82;11.40;;;;;;;;;;5048996;28;20055;-66
2023/03/29 03:43:05;;;;;;;374.95;20.17;;;;;;;;;;5050575;28;20037;-66
2023/03/29 03:45:31;;;;;;;451.92;26.65;;;;;;;;;;5050515;28;20036;-65
2023/03/29 03:47:57;;;;;;;334.77;20.17;;;;;;;;;;5049549;28;20021;-68
2023/03/29 03:50:24;;;;;;;305.65;16.08;;;;;;;;;;5050688;28;20024;-66
2023/03/29 03:52:50;;;;;;;357.48;22.90;;;;;;;;;;5050308;28;20037;-66
2023/03/29 03:55:17;;;;;;;289.58;18.55;;;;;;;;;;5050550;28;20047;-66
2023/03/29 03:57:43;;;;;;;382.35;20.88;;;;;;;;;;5052480;28;20021;-66
2023/03/29 04:00:17;;;;;;;211.88;12.50;;;;;;;;;;5054281;28;20676;-66
2023/03/29 04:02:44;;;;;;;313.83;16.33;;;;;;;;;;5054147;28;20108;-66
2023/03/29 04:05:11;;;;;;;297.90;17.75;;;;;;;;;;5054210;28;20025;-64
2023/03/29 04:07:37;;;;;;;276.67;15.15;;;;;;;;;;5054401;28;20033;-66
2023/03/29 04:10:03;;;;;;;144.77;11.40;;;;;;;;;;5053879;28;20025;-67
2023/03/29 04:12:29;;;;;;;213.45;10.80;;;;;;;;;;5052550;28;20564;-66
2023/03/29 04:14:56;;;;;;;172.88;10.45;;;;;;;;;;5053909;28;20036;-66
2023/03/29 04:17:22;;;;;;;229.75;12.00;;;;;;;;;;5053799;28;20408;-65
2023/03/29 04:19:48;;;;;;;116.95;7.75;;;;;;;;;;5053962;28;20025;-66
2023/03/29 04:22:14;;;;;;;113.38;7.28;;;;;;;;;;5053614;28;20048;-67
2023/03/29 04:24:40;;;;;;;189.57;11.23;;;;;;;;;;5053930;28;20147;-66
2023/03/29 04:27:06;;;;;;;202.65;11.40;;;;;;;;;;5052346;28;20040;-65
2023/03/29 04:29:32;;;;;;;185.20;10.98;;;;;;;;;;5052568;28;20041;-67
2023/03/29 04:31:58;;;;;;;164.88;12.07;;;;;;;;;;5053826;28;20032;-67
2023/03/29 04:34:24;;;;;;;86.13;6.68;;;;;;;;;;5053660;28;20511;-66
2023/03/29 04:36:50;;;;;;;226.18;11.52;;;;;;;;;;5052034;28;20021;-65
2023/03/29 04:39:19;;;;;;;325.80;18.38;;;;;;;;;;5053481;28;20040;-64
2023/03/29 04:41:46;;;;;;;326.10;15.88;;;;;;;;;;5053262;28;20099;-65
2023/03/29 04:44:13;;;;;;;181.20;12.13;;;;;;;;;;5053430;28;20025;-65
2023/03/29 04:46:39;;;;;;;231.48;12.73;;;;;;;;;;5053381;28;20021;-65
2023/03/29 04:49:05;;;;;;;130.95;9.43;;;;;;;;;;5053333;28;20025;-66
2023/03/29 04:51:32;;;;;;;84.63;9.05;;;;;;;;;;5053366;28;20072;-68
2023/03/29 04:53:58;;;;;;;175.55;12.05;;;;;;;;;;5034742;28;20068;-65
2023/03/29 04:56:25;;;;;;;117.82;7.35;;;;;;;;;;5032962;28;20033;-67
2023/03/29 04:58:51;;;;;;;162.25;9.88;;;;;;;;;;5033314;28;20312;-67
2023/03/29 05:01:17;;;;;;;108.07;6.22;;;;;;;;;;5033392;28;20026;-66
2023/03/29 05:03:43;;;;;;;279.45;15.68;;;;;;;;;;5033247;28;20076;-66
2023/03/29 05:06:10;;;;;;;167.55;9.32;;;;;;;;;;5033088;28;20021;-65
2023/03/29 05:08:38;;;;;;;141.07;8.45;;;;;;;;;;5044017;28;20036;-67
2023/03/29 05:11:05;;;;;;;159.63;8.55;;;;;;;;;;5052901;28;20021;-66
2023/03/29 05:13:32;;;;;;;116.80;7.82;;;;;;;;;;5051820;28;20048;-67
2023/03/29 05:16:00;;;;;;;161.18;8.32;;;;;;;;;;5053045;28;20108;-66
2023/03/29 05:18:27;;;;;;;144.32;8.30;;;;;;;;;;5053010;28;20057;-65
2023/03/29 05:20:53;;;;;;;172.63;9.45;;;;;;;;;;5052867;28;20117;-66
2023/03/29 05:23:19;;;;;;;131.98;8.73;;;;;;;;;;5052669;28;20021;-66
2023/03/29 05:25:47;;;;;;;116.43;6.90;;;;;;;;;;5051600;28;20091;-66
2023/03/29 05:28:14;;;;;;;151.57;9.38;;;;;;;;;;5052825;28;20021;-65
2023/03/29 05:30:40;;;;;;;94.18;6.93;;;;;;;;;;5052457;28;20029;-66
2023/03/29 05:33:06;;;;;;;176.52;10.68;;;;;;;;;;5052221;28;20148;-66
2023/03/29 05:35:32;;;;;;;141.13;9.93;;;;;;;;;;5052646;28;20067;-66
2023/03/29 05:37:59;;;;;;;131.50;7.25;;;;;;;;;;5052486;28;20032;-66
2023/03/29 05:40:25;;;;;;;112.78;7.82;;;;;;;;;;5051292;28;20048;-65
2023/03/29 05:42:51;;;;;;;163.02;11.32;;;;;;;;;;5052373;28;20528;-65
2023/03/29 05:45:18;;;;;;;196.13;9.75;;;;;;;;;;5052240;28;20040;-65
2023/03/29 05:47:45;;;;;;;134.85;7.88;;;;;;;;;;5052433;28;20024;-67
2023/03/29 05:50:11;;;;;;;57.30;4.38;;;;;;;;;;5052319;28;20626;-66
2023/03/29 05:52:37;;;;;;;63.65;4.90;;;;;;;;;;5052257;28;20437;-65
2023/03/29 05:55:04;;;;;;;99.45;6.35;;;;;;;;;;5050527;28;20073;-68
2023/03/29 05:57:30;;;;;;;48.70;5.18;;;;;;;;;;5052292;28;20043;-67
2023/03/29 05:59:56;;;;;;;66.40;4.43;;;;;;;;;;5052301;28;20032;-68
2023/03/29 06:02:24;;;;;;;60.75;4.57;;;;;;;;;;5052153;28;20017;-66
2023/03/29 06:04:50;;;;;;;110.00;6.40;;;;;;;;;;5052398;28;20033;-67
2023/03/29 06:07:17;;;;;;;221.95;15.75;;;;;;;;;;5047046;28;20063;-66
2023/03/29 06:09:44;;;;;;;158.60;7.95;;;;;;;;;;5039316;28;20386;-66
2023/03/29 06:12:11;;;;;;;132.25;9.05;;;;;;;;;;5050520;28;20044;-66
2023/03/29 06:14:37;;;;;;;104.13;7.53;;;;;;;;;;5051505;28;20067;-66
2023/03/29 06:17:03;;;;;;;82.95;6.75;;;;;;;;;;5051924;28;20096;-65
2023/03/29 06:19:30;;;;;;;107.32;8.00;;;;;;;;;;5051069;28;20075;-66
2023/03/29 06:21:56;;;;;;;137.57;7.55;;;;;;;;;;5051353;28;20032;-65
2023/03/29 06:24:23;;;;;;;85.32;5.95;;;;;;;;;;5032206;28;20417;-66
2023/03/29 06:26:51;;;;;;;114.90;6.57;;;;;;;;;;5049716;28;20503;-67
2023/03/29 06:29:17;;;;;;;77.20;5.43;;;;;;;;;;5045684;28;20041;-66
2023/03/29 06:31:43;;;;;;;81.68;6.68;;;;;;;;;;5051295;28;20031;-67
2023/03/29 06:34:10;;;;;;;76.13;5.80;;;;;;;;;;5047013;28;20354;-67
2023/03/29 06:36:37;;;;;;;73.80;6.78;;;;;;;;;;5034841;28;21479;-66
2023/03/29 06:39:04;;;;;;;72.50;5.72;;;;;;;;;;5034334;28;20026;-66
2023/03/29 06:41:30;;;;;;;85.05;4.57;;;;;;;;;;5030983;28;20053;-64
2023/03/29 06:43:56;;;;;;;53.70;3.63;;;;;;;;;;5046763;28;20037;-64
2023/03/29 06:46:23;;;;;;;32.17;3.47;;;;;;;;;;5051226;28;20047;-63
2023/03/29 06:48:49;;;;;;;54.20;4.22;;;;;;;;;;5046699;28;20143;-66
2023/03/29 06:51:15;;;;;;;63.90;4.65;;;;;;;;;;5049554;28;20102;-66
2023/03/29 06:53:41;;;;;;;37.10;3.38;;;;;;;;;;5049507;28;20041;-65
2023/03/29 06:56:08;;;;;;;43.00;3.25;;;;;;;;;;5036948;28;20037;-65
2023/03/29 06:58:34;;;;;;;62.72;4.75;;;;;;;;;;5037295;28;20541;-66
2023/03/29 07:01:02;;;;;;;24.92;4.88;;;;;;;;;;5049877;28;20036;-65
2023/03/29 07:03:28;;;;;;;24.75;3.13;;;;;;;;;;5039958;28;20068;-66
2023/03/29 07:06:03;;;;;;;33.97;3.63;;;;;;;;;;5029826;28;20454;-67
2023/03/29 07:08:33;;;;;;;31.63;2.80;;;;;;;;;;5030561;28;20056;-67
2023/03/29 07:11:00;;;;;;;35.33;3.17;;;;;;;;;;5031425;28;20025;-67
2023/03/29 07:13:26;;;;;;;24.98;2.30;;;;;;;;;;5049653;28;20033;-67
2023/03/29 07:15:52;;;;;;;25.80;3.47;;;;;;;;;;5050308;28;20025;-67
2023/03/29 07:18:18;;;;;;;22.27;3.55;;;;;;;;;;5050397;28;20497;-67
2023/03/29 07:20:46;;;;;;;31.15;3.38;;;;;;;;;;5051118;28;20017;-67
2023/03/29 07:23:12;;;;;;;31.52;3.05;;;;;;;;;;5051142;28;20037;-68
2023/03/29 07:25:39;;;;;;;22.40;2.72;;;;;;;;;;5051030;28;20325;-66
2023/03/29 07:28:06;;;;;;;46.95;3.58;;;;;;;;;;5049802;28;20024;-66
2023/03/29 07:30:32;;;;;;;29.08;2.65;;;;;;;;;;5050922;28;20033;-66
2023/03/29 07:32:59;;;;;;;23.73;2.55;;;;;;;;;;5054451;28;20139;-66
2023/03/29 07:35:25;;;;;;;19.08;2.92;;;;;;;;;;5052589;28;20104;-67
2023/03/29 07:37:53;;;;;;;21.02;2.80;;;;;;;;;;5053527;28;20520;-66
2023/03/29 07:40:22;;;;;;;22.10;3.67;;;;;;;;;;5054539;28;20039;-66
2023/03/29 07:42:51;;;;;;;30.13;6.40;;;;;;;;;;5054729;28;20040;-66
2023/03/29 07:45:19;;;;;;;31.38;7.00;;;;;;;;;;5054631;28;20103;-66
2023/03/29 07:47:46;;;;;;;40.42;8.82;;;;;;;;;;5054445;28;20017;-66
2023/03/29 07:50:13;;;;;;;32.70;9.05;;;;;;;;;;5054498;28;20032;-66
2023/03/29 07:52:39;;;;;;;42.45;9.82;;;;;;;;;;5053366;28;20108;-67
2023/03/29 07:55:09;;;;;;;35.20;10.07;;;;;;;;;;5054950;28;20079;-67
2023/03/29 07:57:36;;;;;;;32.25;10.38;;;;;;;;;;5054507;28;20017;-66
2023/03/29 08:00:15;;;;;;;41.13;11.00;;;;;;;;;;5053189;28;20036;-66
2023/03/29 08:02:42;;;;;;;27.95;9.35;;;;;;;;;;5033051;28;20065;-67
2023/03/29 08:05:09;;;;;;;33.35;9.90;;;;;;;;;;5034362;28;20020;-67
2023/03/29 08:07:35;;;;;;;28.83;9.23;;;;;;;;;;5034353;28;20040;-66
2023/03/29 08:10:02;;;;;;;26.83;9.27;;;;;;;;;;5034044;28;20105;-67
2023/03/29 08:12:28;;;;;;;24.83;8.80;;;;;;;;;;5034213;28;20052;-67
2023/03/29 08:14:54;;;;;;;26.60;8.77;;;;;;;;;;5034187;28;20029;-67
2023/03/29 08:17:20;;;;;;;27.30;9.05;;;;;;;;;;5050850;28;20083;-66
2023/03/29 08:19:46;;;;;;;24.95;9.52;;;;;;;;;;5053875;28;20029;-67
2023/03/29 08:22:12;;;;;;;26.63;8.68;;;;;;;;;;5054314;28;20025;-67
2023/03/29 08:24:38;;;;;;;22.75;8.85;;;;;;;;;;5053900;28;20083;-66
2023/03/29 08:27:04;;;;;;;22.75;10.07;;;;;;;;;;5054060;28;20029;-67
2023/03/29 08:29:30;;;;;;;23.63;8.82;;;;;;;;;;5053856;28;20021;-67
2023/03/29 08:31:57;;;;;;;38.60;9.75;;;;;;;;;;5052435;28;20496;-68
2023/03/29 08:34:23;;;;;;;44.28;11.48;;;;;;;;;;5053606;28;20040;-68
2023/03/29 08:36:50;;;;;;;60.00;12.77;;;;;;;;;;5053537;28;20025;-68
2023/03/29 08:39:16;;;;;;;76.35;13.55;;;;;;;;;;5054040;28;20029;-67
2023/03/29 08:41:53;;;;;;;87.22;15.25;;;;;;;;;;5053271;28;20485;-66
2023/03/29 08:44:22;;;;;;;70.40;13.73;;;;;;;;;;5052553;28;20032;-68
2023/03/29 08:46:51;;;;;;;122.50;15.02;;;;;;;;;;5053490;28;20535;-68
2023/03/29 08:49:18;;;;;;;175.90;15.55;;;;;;;;;;5052371;28;20031;-67
2023/03/29 08:51:53;;;;;;;359.92;25.98;;;;;;;;;;5053198;28;20035;-68
2023/03/29 08:54:25;;;;;;;207.55;16.23;;;;;;;;;;5053282;28;20033;-68
2023/03/29 08:56:53;;;;;;;119.03;13.95;;;;;;;;;;5053458;28;20033;-69
2023/03/29 08:59:22;;;;;;;48.38;9.63;;;;;;;;;;5053332;28;20057;-68
2023/03/29 09:01:49;;;;;;;40.22;9.90;;;;;;;;;;5053095;28;20028;-68
2023/03/29 09:04:17;;;;;;;35.80;9.80;;;;;;;;;;5053266;28;20074;-67
2023/03/29 09:06:43;;;;;;;45.75;11.40;;;;;;;;;;5052299;28;20059;-68
2023/03/29 09:09:13;;;;;;;40.03;10.88;;;;;;;;;;5052965;28;20029;-68
2023/03/29 09:11:40;;;;;;;55.92;11.02;;;;;;;;;;5053115;28;20052;-69
2023/03/29 09:14:24;;;;;;;60.42;11.15;;;;;;;;;;5052856;28;20092;-68
2023/03/29 09:17:01;;;;;;;41.10;9.45;;;;;;;;;;5052966;28;20025;-68
2023/03/29 09:19:41;;;;;;;43.35;10.85;;;;;;;;;;5052804;28;20025;-68
2023/03/29 09:22:14;;;;;;;43.53;11.35;;;;;;;;;;5052042;28;20033;-67
2023/03/29 09:24:55;;;;;;;41.78;11.15;;;;;;;;;;5052866;28;20028;-68
2023/03/29 09:27:25;;;;;;;49.80;10.48;;;;;;;;;;5052666;28;20473;-69
2023/03/29 09:30:06;;;;;;;49.42;11.60;;;;;;;;;;5050105;28;20112;-69
2023/03/29 09:32:42;;;;;;;52.08;10.57;;;;;;;;;;5052502;28;20461;-69
2023/03/29 09:35:20;;;;;;;39.22;10.90;;;;;;;;;;5052676;28;20025;-70
2023/03/29 09:37:47;;;;;;;39.08;10.48;;;;;;;;;;5052429;28;20025;-71
2023/03/29 09:40:15;;;;;;;35.85;9.57;;;;;;;;;;5052066;28;20111;-70
2023/03/29 09:42:42;;;;;;;48.05;10.18;;;;;;;;;;5052547;28;20029;-70
2023/03/29 09:45:09;;;;;;;44.25;9.57;;;;;;;;;;5052511;28;20020;-73
2023/03/29 09:47:35;;;;;;;48.67;9.20;;;;;;;;;;5051326;28;20083;-70
2023/03/29 09:50:07;;;;;;;36.67;9.25;;;;;;;;;;5052180;28;20017;-72
2023/03/29 09:52:33;;;;;;;;;;;;;;;;;;5052599;28;20116;-72
2023/03/29 09:55:02;;;;;;;35.70;8.68;;;;;;;;;;5052401;28;19916;-72
2023/03/29 09:57:29;;;;;;;30.23;8.55;;;;;;;;;;5052271;28;20021;-72
2023/03/29 09:59:56;;;;;;;30.65;7.85;;;;;;;;;;5051030;28;20519;-71
2023/03/29 10:02:22;;;;;;;36.20;8.85;;;;;;;;;;5052163;28;20025;-71
2023/03/29 10:05:02;;;;;;;37.00;8.77;;;;;;;;;;5052003;28;20517;-73
2023/03/29 10:07:48;;;;;;;40.83;9.98;;;;;;;;;;5051806;28;20025;-73
2023/03/29 10:10:22;;;;;;;44.58;9.65;;;;;;;;;;5051685;28;20017;-73
2023/03/29 10:12:53;;;;;;;41.10;11.68;;;;;;;;;;5051821;28;20044;-73
2023/03/29 10:15:20;;;;;;;38.22;8.50;;;;;;;;;;5050602;28;20029;-73
2023/03/29 10:17:46;;;;;;;37.08;8.60;;;;;;;;;;5051720;28;20059;-73
2023/03/29 10:20:14;;;;;;;43.83;9.13;;;;;;;;;;5050575;28;20029;-75
2023/03/29 10:22:47;;;;;;;36.45;9.73;;;;;;;;;;5051715;28;20021;-75
2023/03/29 10:25:14;;;;;;;41.22;11.35;;;;;;;;;;5051687;28;20483;-76
2023/03/29 10:27:41;;;;;;;48.83;12.35;;;;;;;;;;5051664;28;20104;-75
2023/03/29 10:30:13;;;;;;;39.95;11.82;;;;;;;;;;5051712;28;20036;-76
2023/03/29 10:32:40;;;;;;;48.25;13.05;;;;;;;;;;5050374;28;20033;-76
2023/03/29 10:35:06;;;;;;;40.53;12.48;;;;;;;;;;5051629;28;20531;-76
2023/03/29 10:37:32;;;;;;;38.63;10.40;;;;;;;;;;5051274;28;20033;-76
2023/03/29 10:39:58;;;;;;;37.58;8.80;;;;;;;;;;5051313;28;20033;-77
2023/03/29 10:42:25;;;;;;;39.03;9.57;;;;;;;;;;5051410;28;20029;-77
2023/03/29 10:44:55;;;;;;;42.25;9.05;;;;;;;;;;5051719;28;20035;-77
2023/03/29 10:47:21;;;;;;;43.38;11.18;;;;;;;;;;5050032;28;20051;-78
2023/03/29 10:49:52;;;;;;;27.75;8.30;;;;;;;;;;5051329;28;20027;-78
2023/03/29 10:52:18;;;;;;;48.67;9.52;;;;;;;;;;5051573;28;20407;-79
2023/03/29 10:54:45;;;;;;;34.80;7.93;;;;;;;;;;5051122;28;20095;-81
2023/03/29 10:57:15;;;;;;;28.38;8.10;;;;;;;;;;5051461;28;20469;-81
2023/03/29 11:00:05;;;;;;;38.03;8.23;;;;;;;;;;5053391;28;20033;-81
2023/03/29 11:02:48;;;;;;;37.30;8.60;;;;;;;;;;5052450;28;20025;-83
2023/03/29 11:05:23;;;;;;;32.67;8.38;;;;;;;;;;5052471;28;20029;-84
2023/03/29 11:08:16;;;;;;;38.95;9.73;;;;;;;;;;5054222;28;20021;-85
2023/03/29 11:10:42;;;;;;;36.30;9.88;;;;;;;;;;5052786;28;20021;-85
2023/03/29 11:13:15;;;;;;;31.73;9.13;;;;;;;;;;5052598;28;20075;-86
2023/03/29 11:15:46;;;;;;;38.40;10.07;;;;;;;;;;5051562;28;20104;-83
2023/03/29 11:18:21;;;;;;;40.88;11.40;;;;;;;;;;5050418;28;20033;-82
2023/03/29 11:21:07;;;;;;;49.13;12.02;;;;;;;;;;5051356;28;20051;-80
2023/03/29 11:23:40;;;;;;;36.15;12.23;;;;;;;;;;5050999;28;20091;-77
2023/03/29 11:26:06;;;;;;;45.58;13.93;;;;;;;;;;5050967;28;20031;-77
2023/03/29 11:28:38;;;;;;;53.05;14.80;;;;;;;;;;5051064;28;20469;-76
2023/03/29 11:31:11;;;;;;;39.33;12.77;;;;;;;;;;5050922;28;20025;-74
2023/03/29 11:33:40;;;;;;;43.75;11.30;;;;;;;;;;5050785;28;20116;-74
2023/03/29 11:36:12;;;;;;;36.78;10.35;;;;;;;;;;5049703;28;20048;-74
2023/03/29 11:38:45;;;;;;;32.90;9.68;;;;;;;;;;5050732;28;20492;-73
2023/03/29 11:41:15;;;;;;;29.65;8.80;;;;;;;;;;5050579;28;20087;-72
2023/03/29 11:44:01;;;;;;;35.20;10.30;;;;;;;;;;5050677;28;20079;-71
2023/03/29 11:46:36;;;;;;;27.63;7.88;;;;;;;;;;5051048;28;20525;-70
2023/03/29 11:49:03;;;;;;;24.77;7.38;;;;;;;;;;5050532;28;20029;-69
2023/03/29 11:51:32;;;;;;;24.02;6.43;;;;;;;;;;5049524;28;20025;-69
2023/03/29 11:53:58;;;;;;;28.58;8.00;;;;;;;;;;5050650;28;20033;-68
2023/03/29 11:56:35;;;;;;;23.73;7.57;;;;;;;;;;5050776;28;20021;-68
2023/03/29 11:59:21;;;;;;;27.55;7.38;;;;;;;;;;5050753;28;20052;-68
2023/03/29 12:01:53;;;;;;;20.10;6.55;;;;;;;;;;5050298;28;20033;-69
2023/03/29 12:04:24;;;;;;;28.35;6.88;;;;;;;;;;5050521;28;20104;-69
2023/03/29 12:06:54;;;;;;;27.75;7.88;;;;;;;;;;5050528;28;20425;-68
2023/03/29 12:09:27;;;;;;;23.88;7.07;;;;;;;;;;5049284;28;20028;-68
2023/03/29 12:12:16;;;;;;;28.15;6.90;;;;;;;;;;5048726;28;20120;-67
2023/03/29 12:14:48;;;;;;;37.53;7.28;;;;;;;;;;5049779;28;20120;-67
2023/03/29 12:17:17;;;;;;;30.98;9.35;;;;;;;;;;5050514;28;20125;-68
2023/03/29 12:19:50;;;;;;;25.10;6.50;;;;;;;;;;5053314;28;20298;-67
2023/03/29 12:22:16;;;;;;;21.10;6.40;;;;;;;;;;5053800;28;20053;-66
2023/03/29 12:24:45;;;;;;;14.13;5.38;;;;;;;;;;5052601;28;20044;-66
2023/03/29 12:27:12;;;;;;;24.15;6.57;;;;;;;;;;5053785;28;20419;-67
2023/03/29 12:29:44;;;;;;;18.60;5.65;;;;;;;;;;5053711;28;20489;-67
2023/03/29 12:32:13;;;;;;;17.17;5.70;;;;;;;;;;5053620;28;20029;-66
2023/03/29 12:34:53;;;;;;;23.63;7.07;;;;;;;;;;5053445;28;20119;-67
2023/03/29 12:37:37;;;;;;;14.32;5.68;;;;;;;;;;5053673;28;20025;-67
2023/03/29 12:40:11;;;;;;;28.15;7.85;;;;;;;;;;5053606;28;20067;-67
2023/03/29 12:42:44;;;;;;;20.35;5.30;;;;;;;;;;5052484;28;20116;-67
2023/03/29 12:45:14;;;;;;;18.40;4.82;;;;;;;;;;5052159;28;20029;-68
2023/03/29 12:47:42;;;;;;;22.85;5.32;;;;;;;;;;5052226;28;20385;-67
2023/03/29 12:50:27;;;;;;;16.13;5.30;;;;;;;;;;5033771;28;20120;-67
2023/03/29 12:53:01;;;;;;;23.95;5.88;;;;;;;;;;5032043;28;20440;-68
2023/03/29 12:55:46;;;;;;;13.98;4.57;;;;;;;;;;5035484;28;20087;-67
2023/03/29 12:58:27;;;;;;;17.73;5.90;;;;;;;;;;5053556;28;20033;-67
2023/03/29 13:01:05;;;;;;;23.70;5.17;;;;;;;;;;5053310;28;20051;-67
2023/03/29 13:03:41;;;;;;;23.45;6.15;;;;;;;;;;5053522;28;20033;-66
2023/03/29 13:06:08;;;;;;;17.80;5.03;;;;;;;;;;5052977;28;20041;-66
2023/03/29 13:08:37;;;;;;;14.43;4.47;;;;;;;;;;5051832;28;20549;-66
2023/03/29 13:11:05;;;;;;;17.67;5.15;;;;;;;;;;5053117;28;20072;-67
2023/03/29 13:13:35;;;;;;;24.30;5.40;;;;;;;;;;5051775;28;20033;-68
2023/03/29 13:16:27;;;;;;;17.23;4.88;;;;;;;;;;5051613;28;20048;-67
2023/03/29 13:19:10;;;;;;;22.30;5.88;;;;;;;;;;5052557;28;20049;-67
2023/03/29 13:21:54;;;;;;;20.60;5.07;;;;;;;;;;5053047;28;20021;-67
2023/03/29 13:24:38;;;;;;;18.70;6.03;;;;;;;;;;5052928;28;20558;-67
2023/03/29 13:27:11;;;;;;;17.00;5.43;;;;;;;;;;5053147;28;20116;-66
2023/03/29 13:29:56;;;;;;;19.73;6.00;;;;;;;;;;5050906;28;20482;-65
2023/03/29 13:32:38;;;;;;;23.77;5.78;;;;;;;;;;5052737;28;20381;-66
2023/03/29 13:35:15;;;;;;;17.50;4.47;;;;;;;;;;5052591;28;20083;-66
2023/03/29 13:37:52;;;;;;;16.70;5.03;;;;;;;;;;5051337;28;20032;-67
2023/03/29 13:40:46;;;;;;;20.08;5.32;;;;;;;;;;5052419;28;20071;-67
2023/03/29 13:43:18;;;;;;;15.35;4.28;;;;;;;;;;5052247;28;20123;-66
2023/03/29 13:45:56;;;;;;;22.73;4.88;;;;;;;;;;5052397;28;20060;-66
2023/03/29 13:48:28;;;;;;;17.73;4.68;;;;;;;;;;5052666;28;20052;-66
2023/03/29 13:50:56;;;;;;;18.65;4.60;;;;;;;;;;5052541;28;20025;-67
2023/03/29 13:53:30;;;;;;;13.20;3.95;;;;;;;;;;5051038;28;20075;-66
2023/03/29 13:55:58;;;;;;;20.05;5.15;;;;;;;;;;5052186;28;20025;-66
2023/03/29 13:58:24;;;;;;;16.80;4.25;;;;;;;;;;5052243;28;20227;-66
2023/03/29 14:01:13;;;;;;;17.48;4.60;;;;;;;;;;5052151;28;20482;-66
2023/03/29 14:03:44;;;;;;;15.75;4.10;;;;;;;;;;5051464;28;20554;-66
2023/03/29 14:06:12;;;;;;;17.77;4.70;;;;;;;;;;5051766;28;20025;-67
2023/03/29 14:08:42;;;;;;;15.52;4.32;;;;;;;;;;5052004;28;20453;-66
2023/03/29 14:11:17;;;;;;;17.17;4.28;;;;;;;;;;5050876;28;20038;-66
2023/03/29 14:13:44;;;;;;;14.68;3.92;;;;;;;;;;5051712;28;20497;-65
2023/03/29 14:16:11;;;;;;;11.90;4.20;;;;;;;;;;5050361;28;20025;-64
2023/03/29 14:18:41;;;;;;;18.63;4.22;;;;;;;;;;5051942;28;20108;-64
2023/03/29 14:21:07;;;;;;;16.95;3.75;;;;;;;;;;5051687;28;20021;-65
2023/03/29 14:23:36;;;;;;;14.32;4.32;;;;;;;;;;5051716;28;20080;-65
2023/03/29 14:26:09;;;;;;;17.65;4.45;;;;;;;;;;5051852;28;20063;-65
2023/03/29 14:28:36;;;;;;;16.70;4.05;;;;;;;;;;5050458;28;20065;-65
2023/03/29 14:31:02;;;;;;;16.98;4.53;;;;;;;;;;5036134;28;20133;-65
2023/03/29 14:33:31;;;;;;;14.95;3.45;;;;;;;;;;5031102;28;20048;-66
2023/03/29 14:35:58;;;;;;;16.77;4.03;;;;;;;;;;5039972;28;20447;-66